Date,TemperatureHighF,TemperatureAvgF,TemperatureLowF,DewpointHighF,DewpointAvgF,DewpointLowF,HumidityHigh,HumidityAvg,HumidityLow,PressureMaxIn,PressureMinIn,WindSpeedMaxMPH,WindSpeedAvgMPH,GustSpeedMaxMPH,PrecipitationSumIn
2014-1-1,20.1,10.1,2.6,16.0,5.8,0.0,95,78,52,29.94,29.66,17,2,20,0.00
2014-1-2,5.8,3.4,0.8,4.0,1.5,0.0,90,86,75,29.94,29.47,12,5,14,0.00
2014-1-3,4.3,-1.4,-14.4,0.0,-6.1,-13.0,89,77,53,29.97,29.42,25,4,25,0.00
2014-1-4,17.7,-1.5,-18.5,8.0,-3.8,-13.0,89,77,57,30.01,29.74,15,1,16,0.00
2014-1-5,32.0,16.3,-0.2,31.0,11.6,-6.0,97,80,48,29.86,29.45,7,0,7,0.05
2014-1-6,43.5,33.8,22.8,43.0,29.5,11.0,100,84,55,29.45,28.85,16,3,19,0.55
2014-1-7,22.6,8.8,3.6,11.0,-2.8,-6.0,59,52,42,29.65,29.04,24,6,26,0.00
2014-1-8,20.5,7.6,-1.6,8.0,0.4,-6.0,85,68,41,29.96,29.65,11,2,13,0.00
2014-1-9,24.7,9.7,-1.6,16.0,3.7,-6.0,91,75,44,30.16,29.93,17,1,19,0.00
2014-1-10,27.0,15.6,0.6,24.0,12.7,0.0,89,83,74,30.11,29.79,6,0,6,0.00
2014-1-11,50.4,33.6,25.3,50.0,32.9,23.0,100,96,87,29.80,28.76,13,0,19,1.10
2014-1-12,49.8,39.7,32.9,49.0,31.7,24.0,98,73,58,29.51,28.82,20,3,21,0.01
2014-1-13,45.3,36.7,24.9,35.0,28.5,24.0,97,73,50,29.61,29.38,15,3,18,0.00
2014-1-14,39.4,36.7,33.3,37.0,35.0,31.0,99,93,79,29.39,29.23,8,0,8,0.46
2014-1-15,46.1,35.5,29.7,42.0,34.2,29.0,100,95,67,29.54,29.33,11,1,12,0.01
2014-1-16,34.1,32.1,30.7,35.0,31.9,31.0,99,98,95,29.51,29.43,9,2,9,0.00
2014-1-17,39.2,31.4,24.5,35.0,30.0,26.0,100,93,70,29.50,29.42,11,1,12,0.04
2014-1-18,35.2,27.5,20.3,32.0,26.7,21.0,99,95,78,29.47,29.23,8,1,8,0.00
2014-1-19,31.0,29.5,27.8,31.0,25.1,18.0,99,82,66,29.27,29.01,17,4,20,0.00
2014-1-20,34.7,26.3,6.2,29.0,19.2,0.0,81,71,63,29.49,29.01,20,5,23,0.03
2014-1-21,7.1,3.2,-0.9,0.0,-5.7,-6.0,72,61,51,29.65,29.48,14,5,15,0.00
2014-1-22,10.6,0.8,-6.6,-6.0,-7.7,-13.0,70,58,45,29.55,29.30,21,6,21,0.00
2014-1-23,15.1,0.8,-9.1,4.0,-5.5,-13.0,84,70,48,29.70,29.52,9,1,9,0.00
2014-1-24,15.3,4.1,-8.5,4.0,-4.1,-13.0,89,66,38,29.81,29.45,18,2,19,0.00
2014-1-25,22.7,18.0,12.7,21.0,9.7,0.0,89,69,52,29.45,28.84,20,5,21,0.00
2014-1-26,21.2,12.6,4.4,18.0,-0.1,-6.0,89,53,37,29.34,28.85,21,3,23,0.00
2014-1-27,32.0,21.1,11.1,28.0,10.4,-6.0,91,60,35,29.53,29.00,18,3,22,0.00
2014-1-28,16.2,8.4,2.0,0.0,-2.8,-6.0,75,55,36,29.80,29.53,19,3,20,0.00
2014-1-29,21.0,8.7,-4.0,11.0,-2.1,-6.0,90,58,28,29.75,29.45,20,3,20,0.00
2014-1-30,26.5,12.9,-0.9,16.0,4.4,-6.0,92,67,42,29.93,29.62,17,2,21,0.00
2014-1-31,36.9,25.9,19.5,24.0,15.0,8.0,83,62,42,29.72,29.52,19,3,19,0.00
2014-2-1,38.8,27.4,14.7,32.0,22.2,14.0,97,81,53,29.88,29.52,16,1,16,0.00
2014-2-2,40.5,35.2,30.9,38.0,32.2,24.0,96,88,71,29.66,29.39,15,2,15,0.03
2014-2-3,32.5,28.1,19.9,24.0,18.3,14.0,78,65,55,29.85,29.65,19,4,22,0.00
2014-2-4,32.1,21.2,10.3,23.0,13.8,8.0,94,72,44,30.01,29.84,8,2,8,0.00
2014-2-5,25.2,21.6,18.8,24.0,18.6,14.0,96,89,66,29.87,29.31,11,3,12,0.00
2014-2-6,25.9,11.5,-0.2,18.0,8.6,0.0,95,84,50,29.84,29.52,15,2,15,0.07
2014-2-7,28.0,10.8,-7.3,21.0,5.4,-6.0,92,74,46,29.75,29.66,13,1,14,0.01
2014-2-8,27.9,15.4,-2.2,16.0,5.9,-6.0,92,64,38,29.82,29.69,18,2,18,0.01
2014-2-9,27.0,19.7,12.6,18.0,12.1,8.0,93,71,44,29.72,29.47,13,1,13,0.00
2014-2-10,23.0,14.9,0.8,18.0,9.8,0.0,93,78,51,29.76,29.45,17,2,19,0.00
2014-2-11,21.1,5.8,-8.7,11.0,-0.9,-13.0,91,70,45,30.03,29.75,17,2,17,0.00
2014-2-12,26.4,5.1,-13.1,4.0,-3.1,-13.0,88,67,30,30.14,29.92,13,1,13,0.00
2014-2-13,27.3,15.8,0.7,28.0,12.5,-6.0,97,82,63,29.93,28.74,12,2,12,0.00
2014-2-14,30.9,27.3,20.9,31.0,25.4,18.0,98,91,77,29.25,28.51,18,3,21,0.01
2014-2-15,31.9,23.4,16.6,28.0,22.0,16.0,97,93,80,29.39,29.17,22,2,28,0.00
2014-2-16,26.0,18.9,11.0,18.0,8.3,0.0,79,60,40,29.57,29.18,28,4,30,0.00
2014-2-17,22.4,9.9,-2.8,4.0,-1.6,-6.0,82,55,31,29.93,29.57,22,4,26,0.01
2014-2-18,22.0,9.9,-6.0,21.0,7.2,-13.0,93,83,69,29.91,29.55,12,1,12,0.00
2014-2-19,27.4,17.9,4.0,26.0,16.4,4.0,96,92,86,29.64,29.31,8,0,8,0.00
2014-2-20,48.6,30.3,12.4,35.0,26.0,11.0,98,84,50,29.74,29.41,11,1,13,0.48
2014-2-21,38.2,34.8,32.1,36.0,34.3,32.0,100,96,89,29.66,29.27,20,2,21,0.98
2014-2-22,48.3,39.4,27.3,40.0,25.5,14.0,100,63,28,29.47,29.33,26,5,26,0.01
2014-2-23,46.5,37.6,29.2,26.0,20.5,14.0,77,51,32,29.50,29.31,18,3,18,0.00
2014-2-24,34.9,25.5,15.6,18.0,10.1,4.0,71,49,35,29.48,29.30,20,4,22,0.00
2014-2-25,22.9,16.4,6.4,14.0,7.6,4.0,84,65,44,29.50,29.41,18,3,22,0.00
2014-2-26,23.2,10.9,2.1,16.0,3.3,0.0,93,69,37,29.45,29.30,26,3,29,0.00
2014-2-27,22.0,12.2,2.4,14.0,2.8,-13.0,86,61,34,29.43,29.12,20,3,25,0.00
2014-2-28,19.7,8.1,-4.9,4.0,-6.1,-13.0,78,48,26,29.97,29.42,19,2,21,0.00
2014-3-1,29.6,14.9,-4.3,16.0,3.0,-13.0,84,55,35,29.98,29.58,17,3,18,0.00
2014-3-2,29.3,23.6,14.8,21.0,13.5,4.0,74,62,53,29.64,29.54,19,4,19,0.00
2014-3-3,19.2,10.6,-0.6,8.0,-1.4,-6.0,82,55,30,29.86,29.60,22,4,23,0.00
2014-3-4,24.9,10.1,-8.5,14.0,0.5,-13.0,86,62,29,29.92,29.77,12,1,13,0.00
2014-3-5,23.0,15.9,7.9,16.0,10.6,-6.0,89,76,57,30.11,29.80,19,4,19,0.01
2014-3-6,33.8,11.3,-6.9,8.0,-3.1,-13.0,88,52,17,30.23,30.03,6,1,7,0.00
2014-3-7,39.4,18.5,-4.5,14.0,4.5,-13.0,84,55,24,30.03,29.50,16,2,16,0.00
2014-3-8,44.2,26.5,12.1,26.0,17.0,8.0,86,66,40,29.50,29.32,20,3,21,0.00
2014-3-9,33.4,24.8,13.6,23.0,10.7,4.0,93,56,27,29.54,29.40,23,2,23,0.00
2014-3-10,38.3,29.9,22.2,31.0,22.9,11.0,95,75,56,29.41,29.13,10,1,10,0.02
2014-3-11,49.9,36.5,28.8,45.0,31.2,26.0,98,83,43,29.30,29.03,17,2,19,0.08
2014-3-12,32.4,29.0,21.4,32.0,28.1,18.0,99,95,90,29.29,28.77,11,3,17,0.00
2014-3-13,21.4,12.8,3.0,18.0,8.2,0.0,95,78,57,29.50,28.74,29,6,31,0.03
2014-3-14,30.0,13.2,-9.0,23.0,8.6,-6.0,91,77,57,29.68,29.36,19,2,19,0.00
2014-3-15,46.1,34.3,21.6,35.0,27.4,21.0,93,76,54,29.44,29.20,19,4,22,0.45
2014-3-16,29.5,20.0,4.2,26.0,8.9,-6.0,89,60,33,29.79,29.43,23,5,26,0.00
2014-3-17,26.8,10.7,-2.6,8.0,-1.9,-6.0,83,54,25,29.78,29.61,17,2,17,0.00
2014-3-18,42.4,16.8,-4.7,11.0,-0.5,-6.0,84,50,12,29.91,29.72,8,1,8,0.00
2014-3-19,39.8,25.6,8.4,56.0,16.8,4.0,96,68,41,29.92,29.51,17,2,19,0.00
2014-3-20,40.9,34.7,30.6,39.0,31.1,24.0,97,88,63,29.54,29.18,17,2,18,0.46
2014-3-21,38.1,32.7,22.5,31.0,22.3,16.0,83,65,45,29.57,29.26,20,3,23,0.07
2014-3-22,42.3,27.4,15.1,32.0,21.7,14.0,93,78,54,29.59,29.21,19,2,22,0.04
2014-3-23,31.8,25.9,10.8,24.0,12.5,0.0,90,56,32,29.70,29.45,23,5,23,0.00
2014-3-24,27.7,14.1,-1.5,8.0,0.6,-6.0,86,54,28,29.73,29.59,24,3,24,0.00
2014-3-25,35.7,17.7,-1.3,14.0,5.9,-6.0,85,59,29,29.68,29.51,18,2,18,0.00
2014-3-26,28.5,22.2,17.5,16.0,8.4,0.0,67,52,36,29.62,29.31,35,7,41,0.04
2014-3-27,38.3,25.6,8.2,16.0,5.1,0.0,78,40,24,29.86,29.61,16,3,18,0.00
2014-3-28,39.2,35.0,30.4,38.0,29.6,14.0,98,81,42,29.72,29.46,15,2,15,0.11
2014-3-29,50.2,41.1,34.5,41.0,35.9,33.0,100,82,54,29.84,29.58,18,3,18,0.19
2014-3-30,39.9,37.9,34.0,39.0,36.6,32.0,98,94,89,29.60,29.30,18,5,18,0.74
2014-3-31,37.4,34.6,31.5,32.0,28.3,24.0,94,77,63,29.68,29.35,29,9,32,0.08
2014-4-1,57.2,38.7,26.1,31.0,26.2,23.0,88,63,33,29.71,29.58,15,3,15,0.00
2014-4-2,55.9,38.7,26.7,38.0,30.2,26.0,98,74,36,29.65,29.56,14,2,14,0.00
2014-4-3,47.3,35.5,23.3,32.0,24.1,21.0,98,66,37,29.73,29.61,22,3,23,0.00
2014-4-4,48.7,35.7,22.5,33.0,25.8,21.0,95,70,39,29.73,29.45,19,3,23,0.16
2014-4-5,46.3,37.6,33.7,44.0,31.2,23.0,98,79,50,29.51,29.27,19,3,21,0.19
2014-4-6,53.0,39.4,29.0,24.0,22.0,18.0,82,50,27,29.74,29.50,22,4,22,0.00
2014-4-7,55.9,42.1,25.8,38.0,27.7,23.0,96,62,32,29.80,29.45,27,2,27,0.03
2014-4-8,53.1,45.5,37.7,51.0,41.5,32.0,95,86,66,29.45,28.87,20,3,21,0.33
2014-4-9,46.9,37.7,26.3,37.0,25.3,11.0,97,65,24,29.52,29.10,25,4,28,0.00
2014-4-10,62.4,42.8,21.7,31.0,24.1,18.0,95,53,23,29.67,29.44,23,4,25,0.00
2014-4-11,65.4,51.1,39.0,43.0,33.4,24.0,97,57,21,29.61,29.44,14,3,18,0.04
2014-4-12,63.9,47.2,34.1,53.0,34.6,26.0,100,69,25,29.79,29.59,23,2,25,0.00
2014-4-13,50.7,42.7,37.5,46.0,37.3,32.0,97,81,69,29.83,29.55,16,2,18,0.37
2014-4-14,76.8,56.7,35.0,56.0,46.6,33.0,98,73,45,29.56,29.28,31,6,31,0.00
2014-4-15,64.0,56.7,34.9,59.0,51.8,33.0,94,85,70,29.39,29.02,24,6,26,0.57
2014-4-16,35.1,28.8,22.7,33.0,19.5,14.0,96,68,39,30.19,29.36,24,6,25,0.05
2014-4-17,48.0,32.8,18.6,23.0,17.8,14.0,91,57,28,30.37,30.19,14,2,16,0.00
2014-4-18,49.7,37.0,22.3,29.0,23.5,18.0,93,60,32,30.21,29.77,17,2,17,0.00
2014-4-19,50.8,39.0,28.7,37.0,28.7,24.0,95,68,40,30.00,29.71,25,4,28,0.00
2014-4-20,61.9,42.6,24.1,35.0,21.6,11.0,97,53,15,30.10,29.83,11,2,12,0.00
2014-4-21,75.6,51.5,31.5,35.0,28.9,24.0,84,48,16,29.83,29.37,17,2,17,0.00
2014-4-22,69.7,54.1,40.9,51.0,40.7,31.0,96,64,30,29.37,29.03,13,2,14,0.02
2014-4-23,54.1,47.0,42.6,50.0,38.6,29.0,95,73,58,29.28,29.02,28,6,28,0.00
2014-4-24,51.2,43.9,35.7,29.0,24.6,21.0,57,46,35,29.54,29.26,34,10,38,0.02
2014-4-25,63.9,48.9,29.6,36.0,24.6,18.0,91,43,17,29.61,29.34,14,2,15,0.00
2014-4-26,49.7,42.7,39.9,42.0,39.2,31.0,98,89,50,29.41,29.31,11,1,12,0.60
2014-4-27,49.4,42.5,38.2,41.0,37.6,35.0,99,84,62,29.68,29.40,22,4,25,0.06
2014-4-28,54.7,46.2,32.1,43.0,36.4,32.0,99,71,51,29.80,29.61,23,5,28,0.00
2014-4-29,55.4,46.8,39.2,38.0,33.3,29.0,83,60,39,30.08,29.79,21,4,22,0.01
2014-4-30,43.2,39.9,38.1,40.0,37.1,35.0,95,89,83,30.09,29.73,13,2,13,0.45
2014-5-1,70.0,50.0,38.4,57.0,45.8,37.0,97,87,55,29.73,29.21,14,2,14,0.16
2014-5-2,60.2,50.8,37.8,51.0,40.6,36.0,99,70,45,29.39,29.22,21,3,23,0.00
2014-5-3,61.4,50.5,41.5,48.0,42.6,36.0,97,76,51,29.42,29.27,14,2,17,0.16
2014-5-4,53.4,48.1,43.5,47.0,42.4,36.0,99,82,57,29.28,29.10,22,3,22,0.08
2014-5-5,55.3,49.0,39.3,45.0,40.6,36.0,96,74,54,29.48,29.23,20,4,23,0.01
2014-5-6,59.2,47.1,34.7,44.0,32.3,24.0,98,62,28,29.64,29.43,28,4,28,0.00
2014-5-7,64.7,48.6,29.8,40.0,28.8,23.0,97,53,21,29.78,29.64,17,3,20,0.00
2014-5-8,70.0,52.9,32.5,37.0,30.4,23.0,91,48,20,29.80,29.63,14,2,14,0.00
2014-5-9,54.0,51.7,46.7,48.0,39.4,29.0,87,65,41,29.81,29.60,21,2,21,0.02
2014-5-10,81.6,64.6,50.8,70.0,50.6,35.0,99,68,27,29.61,29.26,18,3,22,0.17
2014-5-11,74.5,62.9,50.1,49.0,37.0,28.0,80,41,23,29.61,29.37,26,3,26,0.00
2014-5-12,83.3,64.7,42.0,48.0,41.6,38.0,95,50,23,29.69,29.54,18,3,20,0.00
2014-5-13,63.1,54.7,51.4,46.0,41.9,39.0,76,63,43,29.87,29.68,14,3,15,0.00
2014-5-14,77.9,61.6,47.6,50.0,44.1,38.0,82,56,33,29.87,29.72,18,4,18,0.00
2014-5-15,74.2,64.1,55.8,64.0,56.4,47.0,83,77,66,29.82,29.68,13,2,13,0.00
2014-5-16,71.0,66.9,63.5,64.0,60.9,57.0,93,82,66,29.70,29.46,20,4,22,0.03
2014-5-17,66.4,59.1,44.2,62.0,49.0,38.0,97,73,40,29.66,29.36,17,3,18,1.13
2014-5-18,65.6,53.5,40.2,51.0,35.6,26.0,99,58,23,29.75,29.63,24,4,24,0.00
2014-5-19,61.9,51.4,37.5,45.0,38.6,33.0,92,64,35,29.72,29.61,24,4,26,0.00
2014-5-20,71.3,56.8,41.1,51.0,39.9,35.0,98,61,27,29.67,29.53,23,4,28,0.00
2014-5-21,76.3,59.4,39.4,50.0,42.1,37.0,96,59,25,29.61,29.44,12,2,12,0.00
2014-5-22,62.1,56.3,48.8,57.0,52.1,47.0,99,87,65,29.50,29.42,8,1,9,0.51
2014-5-23,58.0,55.7,52.6,57.0,54.6,52.0,100,96,89,29.58,29.43,8,1,9,0.48
2014-5-24,69.9,57.1,52.3,63.0,54.1,48.0,100,91,51,29.65,29.55,27,1,30,0.15
2014-5-25,78.6,61.7,50.8,61.0,50.9,40.0,100,74,27,29.67,29.51,16,2,18,0.01
2014-5-26,76.5,63.1,51.0,63.0,53.3,48.0,98,75,39,29.55,29.36,13,2,16,0.03
2014-5-27,76.0,58.3,49.0,61.0,53.5,45.0,98,85,52,29.54,29.39,18,2,18,0.09
2014-5-28,55.5,50.2,46.7,49.0,45.7,43.0,95,85,71,29.80,29.52,14,2,14,0.01
2014-5-29,71.1,54.9,43.7,50.0,44.0,38.0,99,73,31,29.85,29.66,10,2,12,0.00
2014-5-30,70.3,56.9,48.2,64.0,50.2,45.0,97,80,44,29.69,29.57,19,2,23,0.05
2014-5-31,68.5,56.3,44.2,55.0,48.9,44.0,100,79,47,29.90,29.68,17,4,18,0.00
2014-6-1,77.3,60.1,45.5,56.0,46.6,41.0,98,68,32,29.96,29.76,10,2,12,0.00
2014-6-2,85.2,66.6,45.8,57.0,50.8,44.0,98,63,27,29.78,29.53,11,2,12,0.00
2014-6-3,85.8,69.9,52.7,63.0,55.3,48.0,98,65,38,29.58,29.38,16,2,18,0.04
2014-6-4,78.2,64.2,56.2,64.0,54.9,48.0,94,75,38,29.47,29.29,11,2,12,0.02
2014-6-5,72.0,61.0,52.8,60.0,54.7,50.0,94,82,57,29.35,29.23,13,2,14,0.02
2014-6-6,70.0,61.2,53.4,59.0,53.1,50.0,97,77,52,29.50,29.32,19,3,21,0.02
2014-6-7,81.0,65.9,49.9,60.0,52.6,49.0,98,68,37,29.56,29.46,16,3,17,0.00
2014-6-8,86.2,68.2,49.9,60.0,53.6,47.0,98,66,28,29.57,29.42,8,1,8,0.00
2014-6-9,84.2,69.5,58.5,64.0,58.7,54.0,94,72,44,29.56,29.47,14,2,14,0.00
2014-6-10,76.5,67.4,59.0,63.0,57.8,54.0,93,73,57,29.70,29.52,13,2,14,0.01
2014-6-11,73.1,59.7,51.5,59.0,52.8,47.0,96,81,42,29.76,29.70,17,2,18,0.10
2014-6-12,61.3,57.1,53.9,58.0,55.0,53.0,98,93,86,29.75,29.63,12,1,12,0.40
2014-6-13,61.8,59.1,57.3,60.0,57.6,56.0,99,96,90,29.63,29.40,15,2,15,0.77
2014-6-14,75.6,62.2,53.8,66.0,56.9,50.0,100,86,44,29.56,29.38,18,1,18,0.06
2014-6-15,72.4,62.5,53.7,54.0,51.1,47.0,94,68,45,29.69,29.53,20,4,23,0.00
2014-6-16,84.0,64.8,46.3,59.0,50.4,41.0,99,66,25,29.77,29.58,9,1,10,0.00
2014-6-17,88.8,72.0,56.7,64.0,58.5,50.0,94,67,29,29.64,29.33,10,1,13,0.00
2014-6-18,79.0,71.1,64.2,98.0,61.8,56.0,97,74,48,29.54,29.26,25,4,26,0.26
2014-6-19,75.5,69.0,54.2,63.0,48.7,38.0,95,53,26,29.59,29.52,21,4,23,0.00
2014-6-20,66.5,58.5,47.9,56.0,43.9,38.0,97,63,36,29.59,29.52,24,5,26,0.00
2014-6-21,69.7,57.0,42.1,50.0,43.8,41.0,97,66,38,29.59,29.48,20,3,22,0.00
2014-6-22,79.2,60.8,44.6,53.0,47.9,43.0,97,67,34,29.62,29.52,13,2,13,0.00
2014-6-23,81.9,66.2,48.2,57.0,52.4,47.0,98,66,34,29.72,29.62,14,2,15,0.00
2014-6-24,76.5,68.4,60.8,64.0,59.4,55.0,86,74,58,29.69,29.50,17,3,17,0.00
2014-6-25,74.6,69.3,65.2,70.0,62.7,57.0,98,81,67,29.52,29.43,16,3,16,1.01
2014-6-26,74.2,68.4,58.0,69.0,64.5,57.0,99,89,76,29.62,29.43,16,3,16,0.01
2014-6-27,83.3,66.1,55.3,64.0,54.7,48.0,100,73,32,29.79,29.62,26,3,26,0.01
2014-6-28,89.5,68.4,50.9,61.0,54.0,46.0,99,67,26,29.89,29.78,8,1,8,0.05
2014-6-29,87.3,70.9,53.5,63.0,58.2,52.0,98,69,38,29.85,29.62,13,2,13,0.00
2014-6-30,84.8,72.9,59.2,68.0,64.0,58.0,98,76,55,29.65,29.45,10,2,12,0.00
2014-7-1,88.7,77.2,63.4,72.0,68.3,63.0,98,77,54,29.49,29.30,17,4,18,0.00
2014-7-2,90.7,76.5,69.7,74.0,69.7,66.0,98,82,55,29.51,29.34,23,3,31,0.76
2014-7-3,90.4,75.1,67.0,77.0,68.4,63.0,99,83,47,29.57,29.41,17,2,17,0.81
2014-7-4,74.8,67.1,60.0,73.0,64.2,54.0,99,92,80,29.59,29.49,15,3,17,0.21
2014-7-5,80.0,68.3,59.2,56.0,49.0,42.0,87,53,33,29.61,29.46,29,5,29,0.01
2014-7-6,82.7,70.3,56.1,59.0,53.2,50.0,87,58,34,29.58,29.41,19,3,20,0.00
2014-7-7,81.3,68.3,54.7,74.0,62.9,53.0,98,85,56,29.44,29.24,11,2,13,0.21
2014-7-8,85.1,75.5,65.8,76.0,69.0,63.0,100,82,58,29.35,29.17,16,3,17,0.52
2014-7-9,80.0,70.2,65.1,66.0,63.3,57.0,98,82,50,29.52,29.22,21,4,24,0.22
2014-7-10,78.9,67.6,56.2,69.0,56.3,47.0,100,72,37,29.77,29.52,21,3,23,0.01
2014-7-11,81.6,64.9,50.8,61.0,53.5,50.0,98,71,40,29.86,29.74,8,1,9,0.00
2014-7-12,84.3,68.0,51.8,66.0,58.4,50.0,98,75,46,29.83,29.65,12,2,12,0.00
2014-7-13,80.0,72.4,65.6,71.0,66.3,61.0,93,82,67,29.65,29.41,19,4,20,0.00
2014-7-14,86.6,75.3,65.5,75.0,66.8,62.0,99,78,46,29.48,29.39,14,3,15,0.01
2014-7-15,83.2,73.5,66.2,72.0,68.1,65.0,97,85,63,29.44,29.29,20,3,21,0.13
2014-7-16,79.6,69.4,60.9,70.0,64.8,59.0,99,87,56,29.47,29.32,11,2,11,0.46
2014-7-17,78.1,65.2,55.9,66.0,56.5,52.0,99,78,41,29.69,29.46,10,1,10,0.00
2014-7-18,80.4,65.6,53.9,61.0,54.5,50.0,99,73,36,29.84,29.68,13,2,13,0.00
2014-7-19,80.5,64.8,53.1,62.0,57.4,51.0,98,80,49,29.90,29.79,6,1,6,0.00
2014-7-20,79.8,66.1,57.8,64.0,57.4,53.0,98,77,42,29.82,29.71,10,1,10,0.00
2014-7-21,86.9,68.9,53.8,64.0,58.0,53.0,98,73,40,29.81,29.68,8,1,10,0.00
2014-7-22,88.3,73.7,60.3,70.0,64.9,59.0,98,77,47,29.74,29.53,11,2,11,0.00
2014-7-23,88.8,74.6,65.1,74.0,67.8,64.0,99,83,52,29.54,29.28,29,3,29,1.30
2014-7-24,74.8,66.5,53.7,68.0,57.5,50.0,99,76,48,29.54,29.38,20,3,20,0.05
2014-7-25,81.0,64.3,50.2,62.0,55.1,49.0,98,77,42,29.60,29.49,10,2,12,0.00
2014-7-26,82.3,66.3,53.0,65.0,56.6,52.0,99,76,38,29.56,29.43,17,2,17,0.00
2014-7-27,78.9,65.2,56.4,73.0,62.5,55.0,99,92,71,29.47,29.21,14,1,14,0.55
2014-7-28,73.1,65.8,61.7,73.0,64.9,60.0,100,98,92,29.26,29.05,15,2,15,1.81
2014-7-29,74.5,64.5,56.5,66.0,55.3,50.0,98,75,45,29.56,29.18,15,2,17,0.00
2014-7-30,76.8,61.6,52.0,59.0,54.5,50.0,97,81,45,29.64,29.56,9,2,9,0.00
2014-7-31,73.1,62.3,53.9,66.0,58.6,53.0,100,89,67,29.73,29.62,16,1,16,0.04
2014-8-1,82.0,68.2,57.8,67.0,62.2,57.0,99,84,52,29.81,29.72,12,1,12,0.00
2014-8-2,80.9,68.7,59.8,69.0,62.0,57.0,99,82,53,29.81,29.69,11,2,13,0.00
2014-8-3,83.1,67.0,56.7,67.0,61.5,56.0,99,85,57,29.74,29.60,7,1,7,0.00
2014-8-4,82.6,68.9,61.9,76.0,65.6,61.0,99,91,64,29.65,29.57,8,1,9,0.14
2014-8-5,85.2,70.0,61.8,71.0,63.5,60.0,100,83,51,29.64,29.47,14,1,15,0.00
2014-8-6,77.3,68.2,56.7,74.0,58.3,51.0,99,75,46,29.52,29.40,17,3,19,0.03
2014-8-7,73.0,61.5,53.0,61.0,55.1,51.0,98,82,54,29.58,29.46,25,2,25,0.09
2014-8-8,78.5,64.6,54.4,67.0,56.1,53.0,100,78,44,29.66,29.57,17,2,19,0.01
2014-8-9,82.8,66.3,53.3,65.0,56.4,52.0,99,75,37,29.72,29.63,14,2,16,0.00
2014-8-10,85.4,67.3,52.1,63.0,57.4,51.0,99,75,39,29.77,29.66,8,1,9,0.00
2014-8-11,87.9,68.8,56.3,64.0,58.6,54.0,98,75,37,29.77,29.64,10,1,10,0.00
2014-8-12,79.4,68.7,56.8,67.0,59.7,56.0,99,76,51,29.70,29.57,17,2,21,0.00
2014-8-13,68.9,64.4,60.4,63.0,61.2,59.0,99,91,77,29.58,29.27,16,2,19,1.21
2014-8-14,71.1,61.6,51.5,62.0,53.8,47.0,100,79,46,29.47,29.27,12,2,12,0.01
2014-8-15,66.3,57.3,49.9,55.0,52.0,49.0,99,84,62,29.50,29.44,17,2,18,0.01
2014-8-16,72.7,62.3,54.1,59.0,54.3,50.0,95,78,50,29.53,29.46,14,2,14,0.00
2014-8-17,70.1,61.6,54.3,63.0,57.3,53.0,99,88,60,29.47,29.40,21,2,21,0.07
2014-8-18,69.5,59.5,49.9,60.0,51.7,47.0,100,79,49,29.51,29.41,17,3,18,0.01
2014-8-19,80.0,59.5,47.8,57.0,51.5,47.0,99,79,39,29.57,29.48,8,2,8,0.00
2014-8-20,85.5,64.2,50.5,64.0,56.4,50.0,99,80,46,29.65,29.56,8,2,8,0.00
2014-8-21,67.9,62.8,58.4,62.0,59.1,57.0,98,89,73,29.70,29.64,7,1,7,0.48
2014-8-22,66.2,60.5,56.9,65.0,59.9,56.0,100,99,97,29.74,29.68,5,1,5,0.70
2014-8-23,80.7,64.5,56.8,69.0,59.8,55.0,100,87,49,29.76,29.69,10,2,11,0.00
2014-8-24,81.6,63.6,55.7,65.0,58.6,56.0,100,87,46,29.79,29.68,13,2,14,0.00
2014-8-25,83.7,64.7,57.5,67.0,61.2,57.0,100,90,57,29.81,29.68,6,1,6,0.00
2014-8-26,84.3,65.7,57.0,68.0,60.4,56.0,100,86,46,29.77,29.59,14,1,14,0.00
2014-8-27,85.7,70.1,59.4,71.0,63.8,59.0,99,83,53,29.59,29.42,12,1,13,0.00
2014-8-28,72.1,64.5,57.0,66.0,54.4,47.0,99,73,45,29.61,29.44,21,4,25,0.00
2014-8-29,77.6,62.8,50.0,58.0,53.7,49.0,99,75,46,29.82,29.61,8,1,8,0.00
2014-8-30,75.7,64.1,51.9,60.0,56.7,51.0,99,79,56,29.86,29.66,17,3,18,0.00
2014-8-31,77.3,68.6,60.9,72.0,65.8,59.0,99,92,76,29.67,29.52,10,1,10,0.16
2014-9-1,85.9,72.9,64.5,78.0,67.6,63.0,100,87,51,29.59,29.48,8,1,8,0.00
2014-9-2,85.2,72.9,63.1,73.0,68.2,62.0,99,87,64,29.52,29.28,11,2,17,0.51
2014-9-3,81.3,69.1,58.0,70.0,61.6,56.0,100,81,43,29.70,29.31,14,2,15,0.02
2014-9-4,82.2,66.1,54.4,66.0,59.8,54.0,100,84,51,29.80,29.65,10,2,11,0.00
2014-9-5,85.8,72.1,58.9,72.0,66.3,58.0,100,85,60,29.75,29.51,13,2,16,0.00
2014-9-6,83.3,71.2,60.7,74.0,66.9,59.0,98,88,61,29.54,29.32,20,2,23,0.02
2014-9-7,75.0,63.2,52.6,61.0,53.0,47.0,98,74,39,29.85,29.53,14,3,17,0.00
2014-9-8,76.2,59.5,49.0,59.0,51.9,48.0,99,80,42,30.00,29.85,10,2,11,0.00
2014-9-9,71.6,57.8,46.0,59.0,49.7,45.0,100,78,47,29.99,29.80,12,2,15,0.00
2014-9-10,74.7,58.6,47.3,60.0,53.5,46.0,99,85,60,29.81,29.60,10,2,10,0.00
2014-9-11,70.4,63.9,56.2,67.0,60.0,54.0,97,88,74,29.60,29.31,22,4,27,0.00
2014-9-12,61.4,53.8,48.0,54.0,44.8,42.0,80,72,58,29.88,29.52,18,6,20,0.00
2014-9-13,54.4,48.9,41.2,53.0,46.2,39.0,99,91,76,29.89,29.69,10,1,12,0.28
2014-9-14,58.7,49.3,39.3,53.0,42.9,38.0,99,81,53,29.87,29.71,18,4,23,0.01
2014-9-15,66.6,48.5,38.0,48.0,42.4,37.0,99,83,41,29.85,29.67,8,1,8,0.00
2014-9-16,65.3,53.4,48.7,61.0,51.3,47.0,100,94,65,29.68,29.53,10,1,10,0.17
2014-9-17,68.6,53.2,44.6,56.0,47.1,44.0,100,83,45,29.63,29.52,9,2,10,0.00
2014-9-18,64.5,50.6,39.1,54.0,45.1,37.0,100,83,58,29.77,29.53,20,3,24,0.00
2014-9-19,60.9,43.5,32.8,43.0,34.2,26.0,99,75,31,30.00,29.77,13,2,14,0.00
2014-9-20,63.6,52.0,36.1,58.0,48.1,35.0,99,88,73,29.94,29.62,16,3,18,0.00
2014-9-21,78.3,66.2,53.3,66.0,61.1,52.0,98,85,64,29.62,29.13,17,4,20,0.00
2014-9-22,66.0,57.9,44.3,64.0,48.1,37.0,99,72,43,29.69,29.12,15,3,21,0.03
2014-9-23,66.1,51.5,36.8,51.0,44.4,36.0,99,80,47,30.02,29.68,14,2,17,0.00
2014-9-24,69.9,53.7,46.3,57.0,48.7,45.0,100,86,50,30.22,30.02,9,1,10,0.00
2014-9-25,69.1,51.9,43.8,56.0,49.0,43.0,100,91,57,30.14,29.87,7,1,7,0.00
2014-9-26,80.1,57.8,47.3,60.0,52.7,47.0,100,86,48,29.89,29.74,13,1,14,0.00
2014-9-27,84.2,60.4,49.7,65.0,56.0,49.0,100,88,52,29.84,29.66,7,1,8,0.00
2014-9-28,84.2,62.2,55.0,69.0,59.0,55.0,100,91,54,29.78,29.52,6,1,7,0.00
2014-9-29,73.5,62.4,55.9,65.0,58.5,54.0,100,89,71,29.62,29.52,10,1,11,0.01
2014-9-30,65.0,59.5,57.2,57.0,54.7,54.0,91,85,74,29.66,29.57,10,1,12,0.00
2014-10-1,62.6,59.0,56.1,57.0,55.6,53.0,97,89,82,29.74,29.64,10,2,10,0.00
2014-10-2,74.9,60.2,51.7,60.0,55.0,50.0,98,85,55,29.79,29.66,7,1,8,0.01
2014-10-3,70.5,56.6,47.2,59.0,49.6,47.0,100,81,46,29.75,29.48,12,2,12,0.00
2014-10-4,57.6,55.5,52.1,57.0,53.7,50.0,100,95,86,29.48,29.12,8,2,10,1.16
2014-10-5,61.0,50.4,38.2,57.0,43.3,36.0,99,80,40,29.53,29.16,12,2,15,0.00
2014-10-6,63.4,48.8,37.0,50.0,42.2,37.0,100,81,46,29.68,29.52,16,3,20,0.00
2014-10-7,69.8,57.3,48.1,60.0,53.1,47.0,99,88,63,29.67,29.51,21,2,21,0.02
2014-10-8,67.1,59.2,52.8,59.0,50.1,37.0,99,75,44,29.51,29.25,20,3,24,0.64
2014-10-9,58.4,51.2,45.5,41.0,36.5,32.0,81,59,41,29.54,29.42,18,3,18,0.00
2014-10-10,58.7,47.3,34.9,47.0,38.1,33.0,97,73,44,29.71,29.54,17,2,17,0.00
2014-10-11,56.7,43.4,36.1,44.0,39.4,35.0,99,87,51,29.74,29.64,6,1,7,0.00
2014-10-12,62.5,43.5,34.5,50.0,36.7,32.0,100,81,34,29.88,29.73,14,1,18,0.05
2014-10-13,54.6,43.0,32.0,50.0,40.5,31.0,100,91,75,29.93,29.80,10,1,10,0.00
2014-10-14,75.8,62.6,52.6,63.0,57.2,50.0,95,84,63,29.81,29.67,20,3,21,0.00
2014-10-15,76.0,69.3,63.3,66.0,63.0,60.0,94,81,66,29.68,29.52,22,4,22,0.00
2014-10-16,70.8,66.7,59.7,69.0,65.0,58.0,99,95,84,29.53,29.24,17,2,18,0.93
2014-10-17,68.4,59.6,51.0,60.0,54.1,49.0,100,85,51,29.26,29.17,23,3,24,0.03
2014-10-18,59.7,53.7,48.3,57.0,52.0,45.0,100,95,80,29.24,29.09,17,1,17,0.02
2014-10-19,50.4,43.3,37.7,45.0,35.4,26.0,86,73,59,29.55,29.23,22,6,25,0.02
2014-10-20,55.4,41.0,28.3,40.0,32.7,26.0,95,73,45,29.61,29.51,12,2,14,0.00
2014-10-21,49.1,45.3,41.5,48.0,44.1,39.0,99,95,88,29.66,29.54,8,2,8,0.09
2014-10-22,52.7,48.9,46.6,50.0,46.7,44.0,99,93,77,29.74,29.55,20,5,22,0.09
2014-10-23,50.4,49.0,47.3,48.0,46.8,45.0,98,93,84,29.56,29.36,24,6,24,0.68
2014-10-24,49.1,46.5,44.4,46.0,43.0,40.0,98,88,78,29.39,29.33,21,5,24,0.08
2014-10-25,61.4,45.4,35.4,50.0,42.2,35.0,100,90,57,29.39,29.07,10,1,11,0.00
2014-10-26,52.9,46.1,40.5,47.0,41.5,37.0,100,85,65,29.29,29.01,18,2,21,0.02
2014-10-27,56.2,45.6,36.3,41.0,38.8,35.0,96,79,53,29.62,29.28,18,2,19,0.00
2014-10-28,58.6,46.1,35.9,56.0,43.5,35.0,99,91,69,29.65,29.48,6,1,7,0.06
2014-10-29,54.2,48.7,40.3,54.0,48.4,40.0,100,99,97,29.49,29.38,5,0,5,0.16
2014-10-30,52.0,42.9,37.7,49.0,40.0,37.0,100,90,60,29.59,29.45,17,1,17,0.01
2014-10-31,49.4,42.6,39.5,45.0,38.0,35.0,97,84,58,29.65,29.57,10,1,10,0.00
2014-11-1,39.9,36.7,31.8,39.0,35.3,31.0,98,94,86,29.59,29.50,16,3,20,0.10
2014-11-2,40.3,37.3,35.4,33.0,24.6,16.0,87,60,38,29.54,29.35,34,9,35,0.00
2014-11-3,50.7,38.4,30.5,26.0,17.7,11.0,76,44,20,29.64,29.44,25,4,27,0.00
2014-11-4,50.4,39.5,27.5,40.0,32.8,24.0,91,77,56,29.70,29.52,4,0,4,0.00
2014-11-5,58.1,46.2,33.0,47.0,36.2,29.0,92,71,35,29.68,29.47,17,2,20,0.00
2014-11-6,46.0,39.0,31.9,42.0,36.7,31.0,98,91,73,29.68,29.18,8,1,8,0.37
2014-11-7,39.9,37.7,34.8,39.0,33.5,24.0,99,85,67,29.40,29.10,20,5,21,0.03
2014-11-8,42.2,35.9,29.2,29.0,25.2,21.0,80,65,45,29.53,29.39,15,2,15,0.00
2014-11-9,49.3,38.9,28.1,40.0,31.3,26.0,96,75,51,29.59,29.40,14,1,17,0.00
2014-11-10,52.8,35.8,27.2,39.0,32.0,26.0,98,87,51,29.76,29.58,8,1,8,0.00
2014-11-11,59.3,42.1,29.5,50.0,39.4,29.0,100,90,66,29.74,29.52,26,2,27,0.01
2014-11-12,58.9,44.4,31.2,54.0,41.3,28.0,100,89,62,29.62,29.39,12,1,13,0.02
2014-11-13,41.8,34.8,26.7,36.0,28.7,26.0,97,79,52,29.66,29.51,6,1,13,0.01
2014-11-14,39.0,32.3,23.8,36.0,26.1,18.0,99,78,43,29.67,29.49,17,2,19,0.01
2014-11-15,36.8,26.6,19.5,28.0,16.9,11.0,95,68,35,29.87,29.66,16,2,18,0.01
2014-11-16,38.4,30.0,18.5,24.0,21.4,16.0,90,70,49,29.89,29.64,14,3,16,0.00
2014-11-17,35.3,33.2,30.3,35.0,31.2,24.0,99,91,63,29.65,29.02,9,1,11,0.74
2014-11-18,37.1,29.1,22.5,36.0,16.9,4.0,100,61,38,29.39,29.02,28,5,28,0.02
2014-11-19,31.7,24.8,17.8,16.0,11.9,8.0,73,56,43,29.66,29.38,20,4,27,0.00
2014-11-20,36.4,28.6,24.2,23.0,16.2,11.0,72,57,44,29.54,29.33,20,5,24,0.00
2014-11-21,29.0,23.8,15.9,18.0,12.0,4.0,74,57,41,29.93,29.44,22,3,22,0.00
2014-11-22,36.9,25.9,12.1,26.0,15.3,8.0,89,64,41,29.93,29.56,16,3,16,0.00
2014-11-23,54.4,40.0,34.2,48.0,36.1,24.0,96,86,63,29.70,29.56,8,1,8,0.00
2014-11-24,62.4,50.4,33.6,59.0,48.6,33.0,100,94,86,29.62,29.06,19,4,26,0.44
2014-11-25,58.4,47.8,29.3,54.0,35.1,26.0,94,64,38,29.68,29.19,25,4,25,0.00
2014-11-26,36.7,32.8,30.1,31.0,28.9,24.0,99,86,63,29.83,29.41,14,1,16,0.00
2014-11-27,30.1,28.6,26.6,31.0,25.5,23.0,98,87,78,29.61,29.40,16,2,17,0.00
2014-11-28,31.6,24.4,15.0,26.0,20.9,14.0,92,84,62,29.77,29.58,16,2,16,0.01
2014-11-29,31.5,19.8,8.6,24.0,15.8,8.0,96,84,58,29.89,29.74,10,1,11,0.05
2014-11-30,42.1,34.8,23.0,36.0,31.3,21.0,96,86,77,29.74,29.52,15,3,16,0.24
2014-12-1,44.7,37.0,32.1,41.0,33.2,23.0,98,86,65,30.05,29.52,14,3,16,0.01
2014-12-2,33.9,27.1,19.6,26.0,18.0,11.0,92,66,46,30.30,29.98,18,5,21,0.00
2014-12-3,37.3,32.7,26.3,37.0,31.8,24.0,99,95,74,29.98,29.43,15,2,17,0.33
2014-12-4,35.4,29.5,16.0,29.0,20.0,11.0,83,66,47,30.14,29.60,24,4,24,0.01
2014-12-5,31.9,22.2,10.7,26.0,16.5,8.0,94,77,45,30.26,30.01,8,1,9,0.00
2014-12-6,34.2,31.4,27.2,35.0,30.6,26.0,99,96,90,30.01,29.72,19,1,20,0.19
2014-12-7,32.8,21.6,8.2,31.0,14.6,0.0,91,72,50,30.33,29.89,23,6,26,0.01
2014-12-8,23.8,14.1,3.2,21.0,8.3,0.0,92,75,52,30.35,30.09,9,2,9,0.00
2014-12-9,34.7,28.1,22.5,35.0,27.9,18.0,100,97,87,30.09,29.29,21,4,21,0.01
2014-12-10,37.0,34.6,32.2,37.0,34.6,32.0,100,99,97,29.29,29.04,14,3,14,1.19
2014-12-11,34.9,32.9,31.0,35.0,33.0,31.0,100,99,96,29.35,29.04,8,2,8,0.31
2014-12-12,35.3,31.0,28.1,35.0,30.6,28.0,100,97,92,29.50,29.34,8,1,9,0.03
2014-12-13,35.6,31.0,27.4,31.0,28.5,26.0,95,89,79,29.49,29.40,10,2,12,0.02
2014-12-14,35.9,30.9,24.7,32.0,28.5,24.0,98,90,81,29.54,29.40,16,2,18,0.02
2014-12-15,33.9,30.9,28.7,31.0,26.7,26.0,88,83,79,29.73,29.53,19,5,19,0.00
2014-12-16,36.0,32.2,28.6,35.0,30.5,26.0,98,93,89,29.72,29.51,5,0,5,0.03
2014-12-17,38.3,34.8,33.4,38.0,35.4,33.0,100,99,98,29.51,29.31,4,0,4,0.26
2014-12-18,37.4,34.3,30.7,37.0,33.0,26.0,100,92,80,29.47,29.29,14,2,14,0.05
2014-12-19,30.8,27.9,23.5,26.0,22.8,18.0,83,79,74,29.77,29.44,20,6,20,0.00
2014-12-20,35.9,23.0,14.3,24.0,18.2,11.0,95,82,46,29.90,29.77,6,1,8,0.00
2014-12-21,30.9,26.3,22.8,28.0,24.0,18.0,96,90,86,29.94,29.86,8,1,8,0.02
2014-12-22,35.2,31.1,27.6,33.0,28.8,26.0,96,91,81,29.97,29.85,7,1,7,0.00
2014-12-23,38.1,35.0,32.6,37.0,34.5,32.0,100,97,93,29.87,29.76,10,1,13,0.38
2014-12-24,37.7,34.8,34.1,38.0,35.3,35.0,100,100,100,29.76,29.67,7,1,7,0.00
2014-12-26,37.6,30.6,28.2,38.0,29.2,28.0,100,93,78,29.73,29.67,4,1,4,0.00
2014-12-27,38.1,31.4,28.0,37.0,31.3,28.0,99,97,93,29.78,29.51,4,0,4,0.00
2014-12-28,38.7,35.9,34.1,38.0,31.8,26.0,97,86,65,29.57,29.46,9,2,9,0.00
2014-12-29,35.6,27.4,18.5,28.0,19.8,11.0,93,72,46,29.81,29.56,17,2,19,0.00
2014-12-30,24.5,15.6,6.4,14.0,6.3,0.0,85,65,29,29.93,29.80,13,2,16,0.00
2014-12-31,24.4,14.6,4.9,16.0,8.2,4.0,88,72,46,29.85,29.58,14,2,17,0.00
2015-1-1,28.6,22.3,11.3,14.0,10.9,8.0,83,59,47,29.58,29.39,20,4,22,0.00
2015-1-2,33.9,26.8,16.1,23.0,15.9,8.0,75,61,47,30.02,29.42,19,3,19,0.00